METAR Data
IDs: Format: Raw Decoded Include TAF

Data at: 0505 UTC 26 May 2022

ESMS 260450Z 24014KT 9999 BKN010 13/11 Q1007